createdAt,value
2018-05-25T00:01:00.128Z,18.68
2018-05-25T00:03:44.381Z,18.63
2018-05-25T00:06:28.630Z,18.61
2018-05-25T00:09:12.903Z,18.61
2018-05-25T00:11:57.160Z,18.59
2018-05-25T00:14:41.401Z,18.54
2018-05-25T00:17:25.668Z,18.60
2018-05-25T00:20:09.893Z,18.60
2018-05-25T00:22:54.385Z,18.55
2018-05-25T00:25:38.624Z,18.58
2018-05-25T00:28:22.900Z,18.54
2018-05-25T00:31:07.141Z,18.52
2018-05-25T00:33:51.404Z,18.47
2018-05-25T00:36:35.639Z,18.47
2018-05-25T00:39:19.893Z,18.43
2018-05-25T00:42:04.153Z,18.41
2018-05-25T00:44:48.416Z,18.42
2018-05-25T00:47:32.652Z,18.38
2018-05-25T00:50:16.908Z,18.34
2018-05-25T00:53:01.157Z,18.38
2018-05-25T00:55:45.423Z,18.35
2018-05-25T00:58:29.665Z,18.35
2018-05-25T01:01:13.912Z,18.37
2018-05-25T01:03:58.153Z,18.36
2018-05-25T01:06:42.418Z,18.27
2018-05-25T01:09:26.661Z,18.32
2018-05-25T01:12:10.902Z,18.25
2018-05-25T01:14:55.161Z,18.22
2018-05-25T01:17:39.389Z,18.21
2018-05-25T01:20:23.657Z,18.20
2018-05-25T01:23:07.883Z,18.20
2018-05-25T01:25:52.870Z,18.19
2018-05-25T01:28:37.121Z,18.24
2018-05-25T01:31:21.339Z,18.22
2018-05-25T01:34:05.581Z,18.21
2018-05-25T01:36:49.834Z,18.20
2018-05-25T01:39:34.051Z,18.18
2018-05-25T01:42:18.344Z,18.16
2018-05-25T01:45:02.567Z,18.06
2018-05-25T01:47:46.802Z,18.06
2018-05-25T01:50:31.043Z,18.09
2018-05-25T01:53:15.278Z,18.10
2018-05-25T01:56:00.288Z,18.08
2018-05-25T01:58:44.536Z,18.09
2018-05-25T02:01:28.783Z,18.12
2018-05-25T02:04:13.026Z,18.14
2018-05-25T02:06:57.294Z,18.11
2018-05-25T02:09:41.512Z,18.12
2018-05-25T02:12:26.537Z,18.14
2018-05-25T02:15:10.759Z,18.18
2018-05-25T02:17:55.017Z,18.17
2018-05-25T02:20:39.252Z,18.14
2018-05-25T02:23:23.494Z,18.15
2018-05-25T02:26:08.507Z,18.13
2018-05-25T02:28:52.766Z,18.12
2018-05-25T02:31:37.007Z,18.17
2018-05-25T02:34:21.261Z,18.16
2018-05-25T02:37:05.494Z,18.17
2018-05-25T02:39:49.765Z,18.12
2018-05-25T02:42:34.015Z,18.14
2018-05-25T02:45:18.264Z,18.18
2018-05-25T02:48:02.491Z,18.18
2018-05-25T02:50:46.743Z,18.20
2018-05-25T02:53:30.975Z,18.18
2018-05-25T02:56:15.222Z,18.20
2018-05-25T02:58:59.450Z,18.21
2018-05-25T03:01:43.712Z,18.21
2018-05-25T03:04:27.929Z,18.21
2018-05-25T03:07:12.195Z,18.10
2018-05-25T03:09:56.419Z,18.15
2018-05-25T03:12:40.670Z,18.16
2018-05-25T03:15:24.912Z,18.09
2018-05-25T03:18:09.940Z,18.08
2018-05-25T03:20:54.173Z,18.07
2018-05-25T03:23:39.265Z,18.11
2018-05-25T03:26:23.498Z,18.14
2018-05-25T03:29:07.743Z,18.19
2018-05-25T03:31:51.982Z,18.23
2018-05-25T03:34:36.224Z,18.20
2018-05-25T03:37:21.221Z,18.24
2018-05-25T03:40:05.457Z,18.25
2018-05-25T03:42:49.710Z,18.27
2018-05-25T03:45:33.943Z,18.20
2018-05-25T03:48:18.954Z,18.15
2018-05-25T03:51:04.004Z,18.12
2018-05-25T03:53:48.260Z,18.09
2018-05-25T03:56:32.473Z,18.07
2018-05-25T03:59:35.281Z,18.11
2018-05-25T04:02:20.284Z,18.09
2018-05-25T04:05:04.624Z,18.08
2018-05-25T04:07:48.861Z,18.05
2018-05-25T04:10:33.874Z,18.06
2018-05-25T04:13:18.111Z,18.09
2018-05-25T04:16:02.396Z,18.08
2018-05-25T04:18:46.633Z,18.19
2018-05-25T04:21:30.881Z,18.15
2018-05-25T04:24:15.121Z,18.08
2018-05-25T04:26:59.409Z,18.06
2018-05-25T04:29:44.479Z,17.96
2018-05-25T04:32:28.754Z,17.90
2018-05-25T04:35:12.992Z,17.84
2018-05-25T04:37:57.254Z,17.79
2018-05-25T04:40:41.495Z,17.76
2018-05-25T04:43:25.736Z,17.70
2018-05-25T04:46:09.962Z,17.65
2018-05-25T04:48:54.224Z,17.62
2018-05-25T04:51:38.495Z,17.61
2018-05-25T04:54:22.718Z,17.60
2018-05-25T04:57:07.138Z,17.62
2018-05-25T04:59:52.133Z,17.69
2018-05-25T05:02:36.378Z,17.70
2018-05-25T05:05:20.626Z,17.74
2018-05-25T05:08:05.679Z,17.76
2018-05-25T05:10:49.933Z,17.81
2018-05-25T05:13:34.187Z,17.84
2018-05-25T05:16:18.439Z,17.88
2018-05-25T05:19:03.427Z,17.94
2018-05-25T05:21:48.435Z,18.02
2018-05-25T05:24:32.685Z,18.06
2018-05-25T05:27:16.925Z,18.16
2018-05-25T05:30:01.179Z,18.23
2018-05-25T05:32:45.412Z,18.25
2018-05-25T05:35:29.665Z,18.27
2018-05-25T05:38:13.901Z,18.26
2018-05-25T05:40:58.993Z,18.32
2018-05-25T05:43:43.179Z,18.40
2018-05-25T05:46:27.444Z,18.54
2018-05-25T05:49:11.705Z,18.59
2018-05-25T05:51:55.950Z,18.64
2018-05-25T05:54:40.198Z,18.70
2018-05-25T05:57:24.447Z,18.74
2018-05-25T06:00:08.686Z,18.85
2018-05-25T06:02:52.928Z,18.92
2018-05-25T06:05:37.150Z,19.06
2018-05-25T06:08:22.189Z,19.12
2018-05-25T06:11:06.420Z,19.19
2018-05-25T06:13:50.654Z,19.26
2018-05-25T06:16:34.942Z,19.35
2018-05-25T06:19:19.175Z,19.43
2018-05-25T06:22:03.445Z,19.55
2018-05-25T06:24:47.701Z,19.70
2018-05-25T06:27:31.966Z,19.84
2018-05-25T06:30:16.457Z,19.94
2018-05-25T06:33:01.467Z,19.94
2018-05-25T06:35:45.740Z,19.97
2018-05-25T06:38:29.996Z,20.03
2018-05-25T06:41:14.232Z,20.05
2018-05-25T06:43:58.496Z,20.14
2018-05-25T06:46:42.753Z,20.35
2018-05-25T06:49:27.742Z,20.55
2018-05-25T06:52:12.791Z,20.66
2018-05-25T06:54:57.021Z,20.89
2018-05-25T06:57:41.267Z,21.01
2018-05-25T07:00:25.502Z,21.17
2018-05-25T07:06:00.137Z,21.37
2018-05-25T07:08:45.192Z,21.64
2018-05-25T07:11:30.209Z,21.79
2018-05-25T07:14:14.460Z,21.86
2018-05-25T07:16:58.716Z,21.95
2018-05-25T07:19:43.113Z,21.96
2018-05-25T07:22:27.342Z,22.10
2018-05-25T07:25:11.614Z,22.35
2018-05-25T07:27:55.831Z,22.61
2018-05-25T07:30:40.106Z,22.74
2018-05-25T07:33:24.347Z,22.86
2018-05-25T07:36:08.582Z,23.07
2018-05-25T07:38:52.835Z,23.26
2018-05-25T07:41:37.065Z,23.45
2018-05-25T07:44:22.085Z,23.69
2018-05-25T07:47:06.344Z,23.92
2018-05-25T07:49:50.584Z,24.09
2018-05-25T07:52:34.848Z,24.22
2018-05-25T07:55:19.156Z,24.29
2018-05-25T07:58:04.185Z,24.43
2018-05-25T08:00:48.421Z,24.52
2018-05-25T08:03:32.650Z,24.78
2018-05-25T08:06:16.925Z,24.88
2018-05-25T08:09:01.869Z,24.91
2018-05-25T08:11:46.116Z,24.87
2018-05-25T08:14:30.372Z,25.00
2018-05-25T08:17:14.664Z,25.02
2018-05-25T08:19:58.871Z,25.26
2018-05-25T08:22:43.101Z,25.40
2018-05-25T08:25:28.104Z,25.68
2018-05-25T08:28:12.340Z,25.94
2018-05-25T08:30:56.585Z,25.93
2018-05-25T08:33:41.573Z,25.84
2018-05-25T08:36:25.808Z,25.81
2018-05-25T08:39:10.062Z,25.80
2018-05-25T08:41:55.073Z,25.69
2018-05-25T08:44:39.351Z,25.48
2018-05-25T08:47:23.577Z,25.30
2018-05-25T08:50:07.835Z,25.14
2018-05-25T08:52:52.068Z,24.96
2018-05-25T08:55:37.156Z,24.84
2018-05-25T08:58:21.514Z,24.75
2018-05-25T09:01:05.684Z,24.64
2018-05-25T09:03:49.940Z,24.52
2018-05-25T09:06:34.169Z,24.44
2018-05-25T09:09:18.397Z,24.39
2018-05-25T09:12:02.636Z,24.35
2018-05-25T09:14:46.898Z,24.32
2018-05-25T09:17:31.149Z,24.32
2018-05-25T09:20:15.447Z,24.30
2018-05-25T09:22:59.715Z,24.29
2018-05-25T09:25:43.948Z,24.28
2018-05-25T09:28:28.224Z,24.25
2018-05-25T09:31:12.465Z,24.24
2018-05-25T09:33:56.698Z,24.21
2018-05-25T09:36:41.781Z,24.24
2018-05-25T09:39:25.989Z,24.28
2018-05-25T09:42:10.269Z,24.22
2018-05-25T09:44:54.505Z,24.27
2018-05-25T09:47:38.765Z,24.20
2018-05-25T09:50:23.004Z,24.20
2018-05-25T09:53:07.244Z,24.24
2018-05-25T09:55:52.233Z,24.09
2018-05-25T09:58:36.472Z,23.97
2018-05-25T10:01:20.690Z,23.83
2018-05-25T10:04:04.969Z,23.81
2018-05-25T10:06:49.949Z,23.78
2018-05-25T10:09:34.225Z,23.80
2018-05-25T10:12:18.438Z,23.85
2018-05-25T10:15:03.453Z,23.89
2018-05-25T10:17:47.736Z,23.97
2018-05-25T10:20:31.962Z,23.90
2018-05-25T10:23:16.230Z,23.61
2018-05-25T10:26:00.454Z,23.36
2018-05-25T10:28:44.724Z,23.38
2018-05-25T10:31:29.111Z,23.52
2018-05-25T10:34:13.371Z,23.70
2018-05-25T10:36:57.620Z,23.91
2018-05-25T10:39:41.857Z,24.21
2018-05-25T10:42:26.082Z,24.87
2018-05-25T10:45:10.335Z,25.88
2018-05-25T10:47:54.568Z,26.79
2018-05-25T10:50:38.830Z,27.49
2018-05-25T10:53:23.051Z,28.11
2018-05-25T10:56:08.055Z,28.42
2018-05-25T10:58:52.300Z,28.94
2018-05-25T11:01:36.529Z,29.40
2018-05-25T11:04:21.539Z,29.44
2018-05-25T11:07:05.781Z,28.84
2018-05-25T11:09:50.049Z,28.54
2018-05-25T11:12:34.274Z,28.08
2018-05-25T11:15:18.505Z,28.02
2018-05-25T11:18:03.510Z,28.13
2018-05-25T11:20:47.755Z,27.97
2018-05-25T11:23:31.969Z,27.75
2018-05-25T11:26:16.979Z,27.72
2018-05-25T11:29:01.207Z,27.61
2018-05-25T11:31:46.234Z,27.86
2018-05-25T11:34:30.437Z,28.38
2018-05-25T11:37:14.682Z,28.83
2018-05-25T11:39:59.693Z,29.18
2018-05-25T11:42:43.910Z,28.88
2018-05-25T11:45:28.931Z,28.86
2018-05-25T11:48:13.155Z,28.69
2018-05-25T11:50:57.413Z,28.58
2018-05-25T11:53:41.655Z,28.56
2018-05-25T11:56:25.916Z,28.89
2018-05-25T11:59:10.141Z,29.45
2018-05-25T12:01:55.150Z,29.66
2018-05-25T12:04:39.384Z,29.92
2018-05-25T12:07:23.620Z,29.97
2018-05-25T12:10:08.664Z,29.92
2018-05-25T12:12:52.892Z,29.95
2018-05-25T12:15:37.121Z,30.17
2018-05-25T12:18:21.357Z,30.06
2018-05-25T12:21:05.597Z,29.70
2018-05-25T12:23:49.988Z,29.30
2018-05-25T12:26:34.252Z,28.91
2018-05-25T12:29:18.469Z,28.96
2018-05-25T12:32:02.726Z,29.20
2018-05-25T12:34:46.934Z,29.31
2018-05-25T12:37:31.198Z,29.15
2018-05-25T12:40:15.410Z,29.39
2018-05-25T12:42:59.669Z,29.48
2018-05-25T12:45:43.915Z,29.29
2018-05-25T12:48:28.189Z,29.17
2018-05-25T12:51:12.445Z,28.89
2018-05-25T12:53:56.704Z,28.88
2018-05-25T12:56:40.951Z,29.29
2018-05-25T12:59:25.192Z,29.67
2018-05-25T13:02:09.399Z,29.85
2018-05-25T13:04:53.637Z,30.47
2018-05-25T13:07:38.641Z,30.33
2018-05-25T13:10:22.882Z,30.27
2018-05-25T13:13:07.128Z,30.46
2018-05-25T13:15:51.350Z,29.77
2018-05-25T13:18:35.602Z,29.98
2018-05-25T13:21:19.837Z,30.64
2018-05-25T13:24:04.084Z,31.18
2018-05-25T13:26:48.326Z,31.44
2018-05-25T13:29:32.539Z,31.49
2018-05-25T13:32:16.778Z,31.14
2018-05-25T13:35:01.762Z,31.02
2018-05-25T13:37:46.013Z,31.15
2018-05-25T13:40:31.010Z,31.26
2018-05-25T13:43:15.245Z,30.89
2018-05-25T13:45:59.484Z,30.70
2018-05-25T13:48:44.505Z,30.07
2018-05-25T13:51:28.708Z,30.16
2018-05-25T13:54:13.720Z,30.13
2018-05-25T13:56:57.952Z,30.18
2018-05-25T13:59:42.208Z,30.43
2018-05-25T14:02:26.419Z,30.57
2018-05-25T14:05:10.670Z,30.74
2018-05-25T14:07:55.688Z,30.89
2018-05-25T14:10:39.949Z,30.58
2018-05-25T14:13:24.142Z,30.66
2018-05-25T14:16:08.386Z,30.36
2018-05-25T14:18:52.619Z,30.38
2018-05-25T14:21:36.870Z,30.71
2018-05-25T14:24:21.113Z,31.06
2018-05-25T14:27:05.364Z,31.17
2018-05-25T14:29:49.588Z,31.17
2018-05-25T14:32:33.840Z,30.69
2018-05-25T14:35:18.853Z,30.24
2018-05-25T14:38:03.061Z,29.99
2018-05-25T14:40:47.313Z,29.89
2018-05-25T14:43:32.307Z,29.99
2018-05-25T14:46:16.561Z,29.79
2018-05-25T14:49:00.767Z,29.46
2018-05-25T14:51:45.786Z,29.53
2018-05-25T14:54:30.006Z,29.50
2018-05-25T14:57:14.241Z,29.18
2018-05-25T14:59:58.481Z,29.04
2018-05-25T15:02:42.713Z,28.61
2018-05-25T15:05:26.979Z,28.39
2018-05-25T15:08:11.181Z,28.62
2018-05-25T15:10:55.441Z,28.85
2018-05-25T15:13:39.665Z,29.08
2018-05-25T15:16:24.705Z,29.12
2018-05-25T15:19:08.952Z,29.22
2018-05-25T15:21:53.410Z,29.56
2018-05-25T15:24:37.669Z,29.83
2018-05-25T15:27:21.887Z,29.59
2018-05-25T15:30:06.123Z,29.66
2018-05-25T15:32:50.334Z,29.91
2018-05-25T15:35:34.564Z,29.60
2018-05-25T15:38:18.820Z,29.50
2018-05-25T15:41:03.036Z,29.43
2018-05-25T15:43:47.281Z,29.66
2018-05-25T15:46:31.509Z,29.87
2018-05-25T15:49:15.753Z,30.12
2018-05-25T15:52:00.005Z,30.20
2018-05-25T15:54:44.320Z,30.20
2018-05-25T15:57:28.556Z,30.26
2018-05-25T16:00:12.774Z,30.14
2018-05-25T16:02:57.791Z,29.74
2018-05-25T16:05:41.998Z,29.40
2018-05-25T16:08:27.022Z,29.43
2018-05-25T16:11:11.252Z,29.56
2018-05-25T16:13:55.495Z,29.43
2018-05-25T16:16:40.485Z,28.94
2018-05-25T16:19:25.549Z,28.91
2018-05-25T16:22:09.771Z,28.50
2018-05-25T16:24:54.792Z,28.45
2018-05-25T16:27:39.012Z,28.45
2018-05-25T16:30:23.234Z,28.37
2018-05-25T16:33:07.475Z,28.32
2018-05-25T16:35:52.656Z,28.32
2018-05-25T16:38:36.903Z,28.32
2018-05-25T16:41:21.122Z,28.12
2018-05-25T16:44:05.386Z,27.88
2018-05-25T16:46:49.635Z,27.89
2018-05-25T16:49:33.861Z,27.73
2018-05-25T16:52:18.115Z,27.54
2018-05-25T16:55:02.334Z,27.42
2018-05-25T16:57:47.353Z,27.37
2018-05-25T17:00:31.582Z,27.38
2018-05-25T17:03:16.574Z,27.21
2018-05-25T17:06:00.801Z,27.09
2018-05-25T17:08:45.035Z,27.03
2018-05-25T17:11:29.293Z,27.02
2018-05-25T17:14:14.271Z,27.06
2018-05-25T17:16:59.293Z,27.00
2018-05-25T17:19:43.585Z,26.97
2018-05-25T17:22:27.836Z,26.94
2018-05-25T17:25:12.815Z,26.89
2018-05-25T17:27:57.804Z,26.76
2018-05-25T17:30:42.071Z,26.75
2018-05-25T17:33:26.255Z,26.74
2018-05-25T17:36:10.513Z,26.67
2018-05-25T17:38:54.754Z,26.61
2018-05-25T17:41:39.001Z,26.55
2018-05-25T17:44:23.312Z,26.53
2018-05-25T17:47:08.485Z,26.41
2018-05-25T17:49:53.549Z,26.26
2018-05-25T17:52:38.813Z,26.24
2018-05-25T17:55:23.046Z,26.13
2018-05-25T17:58:07.323Z,26.12
2018-05-25T18:00:52.416Z,26.03
2018-05-25T18:03:37.740Z,25.98
2018-05-25T18:06:22.029Z,25.89
2018-05-25T18:09:07.093Z,25.81
2018-05-25T18:11:51.396Z,25.64
2018-05-25T18:14:35.627Z,25.54
2018-05-25T18:17:19.885Z,25.48
2018-05-25T18:20:04.210Z,25.43
2018-05-25T18:22:48.432Z,25.38
2018-05-25T18:25:33.450Z,25.28
2018-05-25T18:28:17.674Z,25.18
2018-05-25T18:31:01.915Z,25.12
2018-05-25T18:33:46.155Z,25.06
2018-05-25T18:36:31.202Z,24.99
2018-05-25T18:39:15.448Z,24.88
2018-05-25T18:41:59.682Z,24.79
2018-05-25T18:44:43.894Z,24.74
2018-05-25T18:47:28.147Z,24.69
2018-05-25T18:50:12.392Z,24.59
2018-05-25T18:52:57.378Z,24.51
2018-05-25T18:55:41.632Z,24.54
2018-05-25T18:58:25.856Z,24.47
2018-05-25T19:01:10.875Z,24.40
2018-05-25T19:03:55.891Z,24.30
2018-05-25T19:06:40.142Z,24.21
2018-05-25T19:09:24.375Z,24.12
2018-05-25T19:12:08.589Z,24.01
2018-05-25T19:14:52.813Z,23.96
2018-05-25T19:17:37.073Z,23.87
2018-05-25T19:20:21.287Z,23.85
2018-05-25T19:23:05.528Z,23.84
2018-05-25T19:25:49.761Z,23.74
2018-05-25T19:28:34.783Z,23.68
2018-05-25T19:31:19.032Z,23.64
2018-05-25T19:34:03.276Z,23.58
2018-05-25T19:36:47.542Z,23.51
2018-05-25T19:39:31.785Z,23.47
2018-05-25T19:42:16.048Z,23.39
2018-05-25T19:45:00.299Z,23.35
2018-05-25T19:47:44.558Z,23.32
2018-05-25T19:50:28.809Z,23.32
2018-05-25T19:53:13.035Z,23.22
2018-05-25T19:55:57.288Z,23.15
2018-05-25T19:58:41.551Z,23.04
2018-05-25T20:01:25.786Z,23.00
2018-05-25T20:04:10.073Z,22.95
2018-05-25T20:06:54.285Z,23.01
2018-05-25T20:09:38.537Z,22.90
2018-05-25T20:12:22.930Z,22.87
2018-05-25T20:15:07.147Z,22.81
2018-05-25T20:17:52.144Z,22.74
2018-05-25T20:20:36.373Z,22.71
2018-05-25T20:23:20.623Z,22.71
2018-05-25T20:26:05.644Z,22.63
2018-05-25T20:28:49.868Z,22.56
2018-05-25T20:31:35.023Z,22.53
2018-05-25T20:34:20.034Z,22.54
2018-05-25T20:37:04.294Z,22.49
2018-05-25T20:39:48.552Z,22.47
2018-05-25T20:42:32.813Z,22.43
2018-05-25T20:45:17.063Z,22.39
2018-05-25T20:48:01.309Z,22.37
2018-05-25T20:50:45.547Z,22.30
2018-05-25T20:53:29.792Z,22.25
2018-05-25T20:56:14.036Z,22.21
2018-05-25T20:58:58.271Z,22.18
2018-05-25T21:01:42.552Z,22.16
2018-05-25T21:04:26.787Z,22.11
2018-05-25T21:07:11.026Z,22.07
2018-05-25T21:09:55.281Z,22.05
2018-05-25T21:12:39.500Z,21.97
2018-05-25T21:15:23.760Z,21.94
2018-05-25T21:18:08.002Z,21.95
2018-05-25T21:20:52.222Z,21.92
2018-05-25T21:23:36.468Z,21.87
2018-05-25T21:26:20.700Z,21.84
2018-05-25T21:29:04.938Z,21.83
2018-05-25T21:31:49.939Z,21.80
2018-05-25T21:34:34.196Z,21.78
2018-05-25T21:37:18.486Z,21.75
2018-05-25T21:40:02.719Z,21.71
2018-05-25T21:42:46.969Z,21.68
2018-05-25T21:45:31.185Z,21.66
2018-05-25T21:48:15.443Z,21.67
2018-05-25T21:50:59.678Z,21.62
2018-05-25T21:53:44.672Z,21.63
2018-05-25T21:56:28.916Z,21.59
2018-05-25T21:59:13.169Z,21.57
2018-05-25T22:01:57.396Z,21.55
2018-05-25T22:04:42.393Z,21.49
2018-05-25T22:07:26.641Z,21.47
2018-05-25T22:10:10.866Z,21.43
2018-05-25T22:12:55.077Z,21.40
2018-05-25T22:15:39.315Z,21.42
2018-05-25T22:18:23.522Z,21.43
2018-05-25T22:21:09.471Z,21.35
2018-05-25T22:23:53.711Z,21.31
2018-05-25T22:26:37.929Z,21.27
2018-05-25T22:29:22.932Z,21.23
2018-05-25T22:32:07.167Z,21.23
2018-05-25T22:34:51.383Z,21.19
2018-05-25T22:37:35.639Z,21.13
2018-05-25T22:40:19.883Z,21.06
2018-05-25T22:43:21.663Z,21.08
2018-05-25T22:46:23.631Z,21.01
2018-05-25T22:49:26.281Z,20.99
2018-05-25T22:52:22.271Z,20.94
2018-05-25T22:55:13.121Z,20.94
2018-05-25T22:57:57.371Z,20.90
2018-05-25T23:00:44.301Z,20.87
2018-05-25T23:03:28.549Z,20.81
2018-05-25T23:06:12.758Z,20.77
2018-05-25T23:08:57.009Z,20.73
2018-05-25T23:11:41.275Z,20.68
2018-05-25T23:14:25.514Z,20.65
2018-05-25T23:17:09.798Z,20.65
2018-05-25T23:19:54.012Z,20.67
2018-05-25T23:22:38.247Z,20.64
2018-05-25T23:25:23.264Z,20.63
2018-05-25T23:28:07.468Z,20.61
2018-05-25T23:30:51.734Z,20.61
2018-05-25T23:33:36.749Z,20.62
2018-05-25T23:36:20.996Z,20.61
2018-05-25T23:39:06.182Z,20.56
2018-05-25T23:41:50.410Z,20.54
2018-05-25T23:44:34.625Z,20.47
2018-05-25T23:47:19.633Z,20.42
2018-05-25T23:50:03.895Z,20.40
2018-05-25T23:52:48.100Z,20.37
2018-05-25T23:55:33.138Z,20.35
2018-05-25T23:58:17.429Z,20.32
